sensor_id;sensor_type;location;lat;lon;timestamp;pressure;altitude;pressure_sealevel;temperature;humidity
74913;BME280;63878;55.624;37.304;2023-09-19T00:07:11;99495.06;;;11.27;73.72
74913;BME280;63878;55.624;37.304;2023-09-19T00:17:12;99510.22;;;11.10;74.04
74913;BME280;63878;55.624;37.304;2023-09-19T00:27:12;99508.94;;;11.16;73.91
74913;BME280;63878;55.624;37.304;2023-09-19T00:37:12;99481.09;;;11.14;73.69
74913;BME280;63878;55.624;37.304;2023-09-19T00:47:13;99501.69;;;11.20;73.27
74913;BME280;63878;55.624;37.304;2023-09-19T00:57:14;99492.81;;;10.97;74.95
74913;BME280;63878;55.624;37.304;2023-09-19T01:07:15;99505.13;;;10.96;74.61
74913;BME280;63878;55.624;37.304;2023-09-19T01:17:20;99496.84;;;10.90;75.46
74913;BME280;63878;55.624;37.304;2023-09-19T01:37:49;99443.44;;;10.89;75.01
74913;BME280;63878;55.624;37.304;2023-09-19T01:47:57;99477.84;;;11.10;74.83
74913;BME280;63878;55.624;37.304;2023-09-19T01:58:06;99455.38;;;11.06;74.39
74913;BME280;63878;55.624;37.304;2023-09-19T02:08:08;99437.81;;;10.33;76.94
74913;BME280;63878;55.624;37.304;2023-09-19T02:18:09;99437.69;;;10.47;77.08
74913;BME280;63878;55.624;37.304;2023-09-19T02:28:09;99448.47;;;10.55;76.52
74913;BME280;63878;55.624;37.304;2023-09-19T02:38:10;99442.66;;;10.63;76.43
74913;BME280;63878;55.624;37.304;2023-09-19T02:48:10;99440.97;;;10.75;75.65
74913;BME280;63878;55.624;37.304;2023-09-19T02:58:10;99442.16;;;10.71;75.77
74913;BME280;63878;55.624;37.304;2023-09-19T03:08:11;99457.84;;;10.47;77.43
74913;BME280;63878;55.624;37.304;2023-09-19T03:18:11;99446.28;;;10.49;77.70
74913;BME280;63878;55.624;37.304;2023-09-19T03:28:12;99437.47;;;10.50;77.78
74913;BME280;63878;55.624;37.304;2023-09-19T03:38:12;99438.41;;;10.37;78.16
74913;BME280;63878;55.624;37.304;2023-09-19T03:48:14;99434.94;;;10.49;77.58
74913;BME280;63878;55.624;37.304;2023-09-19T03:58:14;99433.25;;;10.48;77.52
74913;BME280;63878;55.624;37.304;2023-09-19T04:08:15;99430.94;;;10.43;78.17
74913;BME280;63878;55.624;37.304;2023-09-19T04:18:15;99412.25;;;10.48;77.84
74913;BME280;63878;55.624;37.304;2023-09-19T04:28:16;99408.78;;;10.84;76.30
74913;BME280;63878;55.624;37.304;2023-09-19T04:38:18;99401.16;;;10.92;76.54
74913;BME280;63878;55.624;37.304;2023-09-19T04:48:18;99404.19;;;10.99;75.07
74913;BME280;63878;55.624;37.304;2023-09-19T04:58:19;99401.09;;;10.81;75.39
74913;BME280;63878;55.624;37.304;2023-09-19T05:08:19;99393.44;;;11.02;74.93
74913;BME280;63878;55.624;37.304;2023-09-19T05:18:20;99384.19;;;11.44;73.53
74913;BME280;63878;55.624;37.304;2023-09-19T05:28:21;99374.28;;;11.70;72.44
74913;BME280;63878;55.624;37.304;2023-09-19T05:38:21;99390.22;;;12.02;71.34
74913;BME280;63878;55.624;37.304;2023-09-19T05:48:22;99379.69;;;12.25;70.67
74913;BME280;63878;55.624;37.304;2023-09-19T05:58:22;99380.31;;;12.06;70.81
74913;BME280;63878;55.624;37.304;2023-09-19T06:08:23;99371.56;;;11.72;72.58
74913;BME280;63878;55.624;37.304;2023-09-19T06:18:23;99379.22;;;12.08;71.92
74913;BME280;63878;55.624;37.304;2023-09-19T06:28:24;99375.00;;;12.39;70.80
74913;BME280;63878;55.624;37.304;2023-09-19T06:38:24;99396.25;;;12.81;70.17
74913;BME280;63878;55.624;37.304;2023-09-19T06:48:25;99391.00;;;12.81;69.49
74913;BME280;63878;55.624;37.304;2023-09-19T06:58:25;99381.00;;;12.53;70.04
74913;BME280;63878;55.624;37.304;2023-09-19T07:08:25;99371.19;;;12.87;69.69
74913;BME280;63878;55.624;37.304;2023-09-19T07:18:26;99351.50;;;12.91;69.59
74913;BME280;63878;55.624;37.304;2023-09-19T07:28:26;99374.88;;;12.95;70.46
74913;BME280;63878;55.624;37.304;2023-09-19T07:38:27;99347.84;;;12.82;69.92
74913;BME280;63878;55.624;37.304;2023-09-19T07:48:27;99330.47;;;13.12;69.29
74913;BME280;63878;55.624;37.304;2023-09-19T07:58:28;99349.94;;;13.41;68.79
74913;BME280;63878;55.624;37.304;2023-09-19T08:08:28;99347.69;;;13.78;68.06
74913;BME280;63878;55.624;37.304;2023-09-19T08:18:29;99344.19;;;13.78;68.48
74913;BME280;63878;55.624;37.304;2023-09-19T08:28:29;99336.13;;;14.10;68.00
74913;BME280;63878;55.624;37.304;2023-09-19T08:38:34;99332.97;;;14.95;66.64
74913;BME280;63878;55.624;37.304;2023-09-19T08:48:39;99299.78;;;14.62;66.41
74913;BME280;63878;55.624;37.304;2023-09-19T08:58:50;99310.66;;;14.78;65.96
74913;BME280;63878;55.624;37.304;2023-09-19T09:08:52;99313.31;;;15.17;65.76
74913;BME280;63878;55.624;37.304;2023-09-19T09:18:53;99309.53;;;15.29;64.57
74913;BME280;63878;55.624;37.304;2023-09-19T09:28:53;99289.38;;;15.19;65.42
74913;BME280;63878;55.624;37.304;2023-09-19T09:38:54;99290.56;;;15.34;65.54
74913;BME280;63878;55.624;37.304;2023-09-19T09:58:55;99284.97;;;15.47;65.30
74913;BME280;63878;55.624;37.304;2023-09-19T10:09:07;99268.19;;;15.56;66.05
74913;BME280;63878;55.624;37.304;2023-09-19T10:19:08;99261.47;;;15.71;65.92
74913;BME280;63878;55.624;37.304;2023-09-19T10:29:13;99250.03;;;15.80;66.13
74913;BME280;63878;55.624;37.304;2023-09-19T10:39:15;99235.97;;;15.97;65.73
74913;BME280;63878;55.624;37.304;2023-09-19T10:49:16;99231.84;;;16.13;65.68
74913;BME280;63878;55.624;37.304;2023-09-19T10:59:19;99223.59;;;16.34;65.16
74913;BME280;63878;55.624;37.304;2023-09-19T11:09:20;99217.66;;;16.58;64.43
74913;BME280;63878;55.624;37.304;2023-09-19T11:19:20;99208.88;;;16.57;64.65
74913;BME280;63878;55.624;37.304;2023-09-19T11:29:26;99217.47;;;16.69;65.05
74913;BME280;63878;55.624;37.304;2023-09-19T11:39:26;99211.59;;;16.65;65.39
74913;BME280;63878;55.624;37.304;2023-09-19T11:49:32;99202.66;;;16.84;65.03
74913;BME280;63878;55.624;37.304;2023-09-19T11:59:32;99181.13;;;17.13;64.14
74913;BME280;63878;55.624;37.304;2023-09-19T12:09:33;99168.69;;;17.48;63.58
74913;BME280;63878;55.624;37.304;2023-09-19T12:19:33;99174.91;;;17.65;64.04
74913;BME280;63878;55.624;37.304;2023-09-19T12:29:47;99153.81;;;17.71;63.28
74913;BME280;63878;55.624;37.304;2023-09-19T12:39:49;99138.72;;;17.72;63.40
74913;BME280;63878;55.624;37.304;2023-09-19T12:50:10;99146.22;;;17.93;62.73
74913;BME280;63878;55.624;37.304;2023-09-19T13:00:10;99145.44;;;18.08;62.06
74913;BME280;63878;55.624;37.304;2023-09-19T13:10:11;99142.72;;;17.84;62.21
74913;BME280;63878;55.624;37.304;2023-09-19T13:20:25;99137.97;;;18.20;61.88
74913;BME280;63878;55.624;37.304;2023-09-19T13:30:27;99124.19;;;18.08;61.77
74913;BME280;63878;55.624;37.304;2023-09-19T13:40:28;99119.50;;;18.02;61.84
74913;BME280;63878;55.624;37.304;2023-09-19T13:50:28;99102.25;;;18.14;60.69
74913;BME280;63878;55.624;37.304;2023-09-19T14:00:29;99106.06;;;18.20;60.64
74913;BME280;63878;55.624;37.304;2023-09-19T14:10:30;99099.22;;;18.26;60.61
74913;BME280;63878;55.624;37.304;2023-09-19T14:20:31;99096.09;;;18.22;60.66
74913;BME280;63878;55.624;37.304;2023-09-19T14:30:31;99079.31;;;18.13;56.50
74913;BME280;63878;55.624;37.304;2023-09-19T14:40:32;99057.84;;;17.99;60.74
74913;BME280;63878;55.624;37.304;2023-09-19T14:50:32;99074.63;;;17.91;57.52
74913;BME280;63878;55.624;37.304;2023-09-19T15:00:33;99078.94;;;17.84;59.33
74913;BME280;63878;55.624;37.304;2023-09-19T15:10:33;99067.66;;;17.74;60.00
74913;BME280;63878;55.624;37.304;2023-09-19T15:20:34;99066.19;;;17.88;60.06
74913;BME280;63878;55.624;37.304;2023-09-19T15:30:38;99057.88;;;17.74;59.85
74913;BME280;63878;55.624;37.304;2023-09-19T15:40:46;99068.78;;;17.63;59.36
74913;BME280;63878;55.624;37.304;2023-09-19T15:50:46;99053.28;;;17.50;61.12
74913;BME280;63878;55.624;37.304;2023-09-19T16:00:47;99057.25;;;17.38;61.01
74913;BME280;63878;55.624;37.304;2023-09-19T16:10:48;99067.38;;;17.35;61.18
74913;BME280;63878;55.624;37.304;2023-09-19T16:20:49;99063.00;;;17.25;61.24
74913;BME280;63878;55.624;37.304;2023-09-19T16:30:49;99063.81;;;17.18;60.87
74913;BME280;63878;55.624;37.304;2023-09-19T16:40:59;99083.03;;;17.12;58.83
74913;BME280;63878;55.624;37.304;2023-09-19T16:51:07;99088.38;;;16.86;59.69
74913;BME280;63878;55.624;37.304;2023-09-19T17:01:09;99084.75;;;16.61;60.29
74913;BME280;63878;55.624;37.304;2023-09-19T17:11:11;99092.19;;;16.57;61.05
74913;BME280;63878;55.624;37.304;2023-09-19T17:21:12;99097.47;;;16.75;61.50
74913;BME280;63878;55.624;37.304;2023-09-19T17:31:20;99087.06;;;17.24;63.45
74913;BME280;63878;55.624;37.304;2023-09-19T17:41:21;99094.81;;;16.31;61.18
74913;BME280;63878;55.624;37.304;2023-09-19T17:51:22;99101.50;;;16.17;62.34
74913;BME280;63878;55.624;37.304;2023-09-19T18:01:24;99100.94;;;16.32;62.64
74913;BME280;63878;55.624;37.304;2023-09-19T18:11:25;99098.13;;;17.11;63.03
74913;BME280;63878;55.624;37.304;2023-09-19T18:21:26;99089.94;;;16.96;61.62
74913;BME280;63878;55.624;37.304;2023-09-19T18:31:27;99092.25;;;16.39;62.62
74913;BME280;63878;55.624;37.304;2023-09-19T18:41:27;99086.75;;;16.15;61.86
74913;BME280;63878;55.624;37.304;2023-09-19T18:51:28;99088.41;;;16.16;62.23
74913;BME280;63878;55.624;37.304;2023-09-19T19:01:28;99089.44;;;16.23;63.85
74913;BME280;63878;55.624;37.304;2023-09-19T19:11:29;99073.09;;;16.10;64.40
74913;BME280;63878;55.624;37.304;2023-09-19T19:21:30;99079.84;;;16.04;61.85
74913;BME280;63878;55.624;37.304;2023-09-19T19:31:30;99082.97;;;16.00;64.30
74913;BME280;63878;55.624;37.304;2023-09-19T19:41:34;99068.97;;;15.89;62.26
74913;BME280;63878;55.624;37.304;2023-09-19T19:51:37;99078.72;;;15.89;62.97
74913;BME280;63878;55.624;37.304;2023-09-19T20:01:38;99083.81;;;15.82;64.84
74913;BME280;63878;55.624;37.304;2023-09-19T20:11:39;99077.53;;;15.56;62.03
74913;BME280;63878;55.624;37.304;2023-09-19T20:21:39;99069.91;;;15.53;63.19
74913;BME280;63878;55.624;37.304;2023-09-19T20:31:40;99064.91;;;15.50;63.37
74913;BME280;63878;55.624;37.304;2023-09-19T20:41:40;99076.78;;;15.46;62.72
74913;BME280;63878;55.624;37.304;2023-09-19T20:51:41;99062.28;;;15.22;62.95
74913;BME280;63878;55.624;37.304;2023-09-19T21:01:42;99087.56;;;15.34;61.72
74913;BME280;63878;55.624;37.304;2023-09-19T21:11:43;99054.69;;;15.09;61.12
74913;BME280;63878;55.624;37.304;2023-09-19T21:21:43;99059.41;;;15.15;62.17
74913;BME280;63878;55.624;37.304;2023-09-19T21:31:44;99064.41;;;15.19;63.06
74913;BME280;63878;55.624;37.304;2023-09-19T21:41:44;99064.16;;;15.12;62.75
74913;BME280;63878;55.624;37.304;2023-09-19T21:51:45;99037.94;;;14.91;60.89
74913;BME280;63878;55.624;37.304;2023-09-19T22:01:45;99043.78;;;14.95;61.96
74913;BME280;63878;55.624;37.304;2023-09-19T22:11:46;99063.28;;;14.94;62.69
74913;BME280;63878;55.624;37.304;2023-09-19T22:21:46;99072.38;;;14.81;60.67
74913;BME280;63878;55.624;37.304;2023-09-19T22:31:47;99059.97;;;14.82;62.11
74913;BME280;63878;55.624;37.304;2023-09-19T22:41:48;99059.41;;;14.78;60.69
74913;BME280;63878;55.624;37.304;2023-09-19T22:51:49;99051.25;;;14.62;60.80
74913;BME280;63878;55.624;37.304;2023-09-19T23:01:49;99049.06;;;14.48;60.70
74913;BME280;63878;55.624;37.304;2023-09-19T23:11:58;99055.50;;;14.45;61.66
74913;BME280;63878;55.624;37.304;2023-09-19T23:21:59;99058.03;;;14.27;60.75
74913;BME280;63878;55.624;37.304;2023-09-19T23:32:00;99042.75;;;14.12;61.73
74913;BME280;63878;55.624;37.304;2023-09-19T23:42:00;99046.09;;;14.04;60.89
74913;BME280;63878;55.624;37.304;2023-09-19T23:52:01;99032.22;;;13.92;61.02
